Dallas, Texas
Traffic Map
Current Weather Conditions
Dallas, Texas
Overcast
Overcast
29°
Feels Like: 32°
Wind Chill: 29° Ceiling: 26000
Heat Index: 32° Visibility: 10mi
Dew Point: 22° Wind: 8mph
Humidity: 67% Direction: 180° (S)
Pressure: 30.04in Gusts: 0mph
Raw Report DataKDAL 260553Z 18007KT 10SM FEW210 BKN260 OVC300 29/22 A3004 RMK AO2 SLP165 T02890222 10328 20283 403500261 53015
Traffic Incident Summary
Active as of:
Severity:
Category:
InformationThere was an issue retrieving the traffic information for this location. Please try a different location or try again shortly.
Advertisements
Track Severe Weather on mobile